createdAt,value
2023-05-13T00:00:40.475Z,8.67
2023-05-13T00:01:43.770Z,7.83
2023-05-13T00:02:47.118Z,8.00
2023-05-13T00:03:50.541Z,8.33
2023-05-13T00:04:54.124Z,9.29
2023-05-13T00:05:57.460Z,8.14
2023-05-13T00:08:10.942Z,8.25
2023-05-13T00:09:14.224Z,8.33
2023-05-13T00:10:17.816Z,10.29
2023-05-13T00:11:21.078Z,10.57
2023-05-13T00:12:24.588Z,8.71
2023-05-13T00:13:27.977Z,8.43
2023-05-13T00:14:31.365Z,8.67
2023-05-13T00:15:34.749Z,7.71
2023-05-13T00:16:38.321Z,6.71
2023-05-13T00:18:57.773Z,7.00
2023-05-13T00:20:01.001Z,7.00
2023-05-13T00:21:04.384Z,6.67
2023-05-13T00:22:07.671Z,6.33
2023-05-13T00:23:11.076Z,6.00
2023-05-13T00:24:14.756Z,5.57
2023-05-13T00:25:18.418Z,6.29
2023-05-13T00:26:21.827Z,6.14
2023-05-13T00:27:25.324Z,5.43
2023-05-13T00:28:29.010Z,6.00
2023-05-13T00:29:32.430Z,5.86
2023-05-13T00:30:35.797Z,5.71
2023-05-13T00:31:39.449Z,6.43
2023-05-13T00:32:42.811Z,7.00
2023-05-13T00:33:46.276Z,6.86
2023-05-13T00:34:49.662Z,6.14
2023-05-13T00:35:53.131Z,4.86
2023-05-13T00:38:12.705Z,7.00
2023-05-13T00:39:15.785Z,7.00
2023-05-13T00:40:18.923Z,6.29
2023-05-13T00:41:22.650Z,6.29
2023-05-13T00:42:26.151Z,6.71
2023-05-13T00:43:29.437Z,7.00
2023-05-13T00:44:32.917Z,6.57
2023-05-13T00:45:36.327Z,6.14
2023-05-13T00:46:39.839Z,7.00
2023-05-13T00:47:43.147Z,6.71
2023-05-13T00:48:46.566Z,7.43
2023-05-13T00:50:57.748Z,7.00
2023-05-13T00:52:04.719Z,7.71
2023-05-13T00:53:08.203Z,7.37
2023-05-13T00:54:11.505Z,7.00
2023-05-13T00:55:14.802Z,7.67
2023-05-13T00:56:17.954Z,8.00
2023-05-13T00:57:21.441Z,8.33
2023-05-13T00:58:25.049Z,9.29
2023-05-13T00:59:28.625Z,8.14
2023-05-13T01:00:31.934Z,6.86
2023-05-13T01:02:51.140Z,6.75
2023-05-13T01:03:54.143Z,6.67
2023-05-13T01:04:56.922Z,6.33
2023-05-13T01:05:59.718Z,6.00
2023-05-13T01:07:02.305Z,6.00
2023-05-13T01:08:05.355Z,6.67
2023-05-13T01:09:08.296Z,6.43
2023-05-13T01:11:26.920Z,4.62
2023-05-13T01:12:29.477Z,5.67
2023-05-13T01:13:32.116Z,4.67
2023-05-13T01:14:34.769Z,5.00
2023-05-13T01:15:37.483Z,5.00
2023-05-13T01:16:40.122Z,4.67
2023-05-13T01:17:42.828Z,4.83
2023-05-13T01:18:46.600Z,4.33
2023-05-13T01:19:49.510Z,4.37
2023-05-13T01:22:08.121Z,4.50
2023-05-13T01:23:10.668Z,5.67
2023-05-13T01:24:13.318Z,4.00
2023-05-13T01:25:15.904Z,4.00
2023-05-13T01:26:18.743Z,3.33
2023-05-13T01:27:21.571Z,3.00
2023-05-13T01:28:24.481Z,2.67
2023-05-13T01:30:43.309Z,3.12
2023-05-13T01:31:45.950Z,3.67
2023-05-13T01:32:48.662Z,3.00
2023-05-13T01:33:51.353Z,3.00
2023-05-13T01:34:53.912Z,3.00
2023-05-13T01:35:56.491Z,3.00
2023-05-13T01:36:59.084Z,3.00
2023-05-13T01:38:01.802Z,3.00
2023-05-13T01:39:04.560Z,2.00
2023-05-13T01:41:23.189Z,3.37
2023-05-13T01:42:25.762Z,3.67
2023-05-13T01:43:28.356Z,3.00
2023-05-13T01:44:30.940Z,3.33
2023-05-13T01:45:33.604Z,4.00
2023-05-13T01:46:36.345Z,3.17
2023-05-13T01:48:55.011Z,3.12
2023-05-13T01:49:57.559Z,3.83
2023-05-13T01:51:00.224Z,3.67
2023-05-13T01:52:02.770Z,3.00
2023-05-13T01:53:05.433Z,3.00
2023-05-13T01:54:08.070Z,3.17
2023-05-13T01:56:17.966Z,3.00
2023-05-13T01:57:20.534Z,3.00
2023-05-13T01:58:23.301Z,3.33
2023-05-13T01:59:41.450Z,3.83
2023-05-13T02:00:44.226Z,3.87
2023-05-13T02:01:47.197Z,3.50
2023-05-13T02:02:49.852Z,3.57
2023-05-13T02:03:52.722Z,2.50
2023-05-13T02:04:55.305Z,2.29
2023-05-13T02:05:57.952Z,2.83
2023-05-13T02:07:00.514Z,3.83
2023-05-13T02:08:03.197Z,5.00
2023-05-13T02:09:05.780Z,3.50
2023-05-13T02:10:08.323Z,3.00
2023-05-13T02:12:18.496Z,3.87
2023-05-13T02:14:28.708Z,3.50
2023-05-13T02:15:31.378Z,2.67
2023-05-13T02:16:34.036Z,2.43
2023-05-13T02:17:36.965Z,3.33
2023-05-13T02:19:55.437Z,4.62
2023-05-13T02:20:58.073Z,3.29
2023-05-13T02:22:00.615Z,3.00
2023-05-13T02:23:03.223Z,2.33
2023-05-13T02:24:05.831Z,3.00
2023-05-13T02:25:08.376Z,3.67
2023-05-13T02:27:27.166Z,3.12
2023-05-13T02:28:30.128Z,3.67
2023-05-13T02:29:32.917Z,3.00
2023-05-13T02:30:35.843Z,3.33
2023-05-13T02:31:38.670Z,4.00
2023-05-13T02:32:41.292Z,4.33
2023-05-13T02:35:00.168Z,4.00
2023-05-13T02:36:03.018Z,3.83
2023-05-13T02:37:05.934Z,3.43
2023-05-13T02:38:08.805Z,3.83
2023-05-13T02:39:11.620Z,4.00
2023-05-13T02:40:14.310Z,4.00
2023-05-13T02:41:17.146Z,4.00
2023-05-13T02:43:35.955Z,4.00
2023-05-13T02:44:38.991Z,3.83
2023-05-13T02:45:41.919Z,4.00
2023-05-13T02:46:44.865Z,4.00
2023-05-13T02:47:47.497Z,4.29
2023-05-13T02:48:50.529Z,4.67
2023-05-13T02:49:53.604Z,4.00
2023-05-13T02:50:56.587Z,4.43
2023-05-13T02:51:59.468Z,5.00
2023-05-13T02:53:02.315Z,3.67
2023-05-13T02:55:12.637Z,3.50
2023-05-13T02:56:15.531Z,3.67
2023-05-13T02:57:18.095Z,4.67
2023-05-13T02:59:37.037Z,3.50
2023-05-13T03:00:39.662Z,3.67
2023-05-13T03:01:42.301Z,4.00
2023-05-13T03:02:45.012Z,4.00
2023-05-13T03:03:47.742Z,3.67
2023-05-13T03:04:50.530Z,3.00
2023-05-13T03:05:53.081Z,3.33
2023-05-13T03:06:55.667Z,4.00
2023-05-13T03:07:58.343Z,4.00
2023-05-13T03:10:08.594Z,3.87
2023-05-13T03:12:27.379Z,3.00
2023-05-13T03:13:30.174Z,3.67
2023-05-13T03:14:33.027Z,4.33
2023-05-13T03:15:35.963Z,3.33
2023-05-13T03:16:38.937Z,4.67
2023-05-13T03:17:41.885Z,3.14
2023-05-13T03:18:44.857Z,3.00
2023-05-13T03:19:47.995Z,4.67
2023-05-13T03:20:50.918Z,4.43
2023-05-13T03:28:06.356Z,3.33
2023-05-13T03:29:08.852Z,3.83
2023-05-13T03:30:11.722Z,3.33
2023-05-13T03:31:14.608Z,3.57
2023-05-13T03:32:17.640Z,3.67
2023-05-13T03:33:20.451Z,4.57
2023-05-13T03:34:23.315Z,4.33
2023-05-13T03:35:26.095Z,4.00
2023-05-13T03:36:28.885Z,4.00
2023-05-13T03:37:31.743Z,3.86
2023-05-13T03:38:34.519Z,4.33
2023-05-13T03:39:37.540Z,4.14
2023-05-13T03:40:40.476Z,3.67
2023-05-13T03:41:43.098Z,4.00
2023-05-13T03:42:45.769Z,3.67
2023-05-13T03:43:48.390Z,3.43
2023-05-13T03:44:50.960Z,4.00
2023-05-13T03:45:53.621Z,4.33
2023-05-13T03:46:56.278Z,4.67
2023-05-13T03:47:58.992Z,3.57
2023-05-13T03:49:01.660Z,3.33
2023-05-13T03:50:04.225Z,3.17
2023-05-13T03:51:06.812Z,3.43
2023-05-13T03:52:09.397Z,4.33
2023-05-13T03:53:12.003Z,4.67
2023-05-13T03:54:14.528Z,4.33
2023-05-13T03:55:17.206Z,5.00
2023-05-13T03:56:20.062Z,4.83
2023-05-13T03:57:23.008Z,4.50
2023-05-13T03:58:25.962Z,4.43
2023-05-13T03:59:28.785Z,4.67
2023-05-13T04:00:31.594Z,4.00
2023-05-13T04:01:34.348Z,3.67
2023-05-13T04:02:37.694Z,3.00
2023-05-13T04:03:40.636Z,3.43
2023-05-13T04:04:43.658Z,4.00
2023-05-13T04:05:46.474Z,3.67
2023-05-13T04:06:49.335Z,3.29
2023-05-13T04:07:52.314Z,3.67
2023-05-13T04:08:55.393Z,3.00
2023-05-13T04:09:58.346Z,3.43
2023-05-13T04:11:01.163Z,4.33
2023-05-13T04:12:03.995Z,5.43
2023-05-13T04:13:07.104Z,5.33
2023-05-13T04:14:09.912Z,4.00
2023-05-13T04:15:12.752Z,3.71
2023-05-13T04:16:15.581Z,4.00
2023-05-13T04:17:18.463Z,3.57
2023-05-13T04:18:21.288Z,2.67
2023-05-13T04:19:24.238Z,3.00
2023-05-13T04:20:27.195Z,3.00
2023-05-13T04:21:29.780Z,3.00
2023-05-13T04:22:32.652Z,3.00
2023-05-13T04:23:35.506Z,3.00
2023-05-13T04:24:38.322Z,2.83
2023-05-13T04:25:41.510Z,2.43
2023-05-13T04:26:44.368Z,3.43
2023-05-13T04:27:47.279Z,3.67
2023-05-13T04:28:50.175Z,3.43
2023-05-13T04:29:53.071Z,3.67
2023-05-13T04:30:55.984Z,4.29
2023-05-13T04:31:58.923Z,6.00
2023-05-13T04:33:01.844Z,6.00
2023-05-13T04:34:04.567Z,5.14
2023-05-13T04:35:07.198Z,3.67
2023-05-13T04:36:09.796Z,3.67
2023-05-13T04:37:12.446Z,4.67
2023-05-13T04:38:15.096Z,4.00
2023-05-13T04:39:17.720Z,3.33
2023-05-13T04:40:20.529Z,2.33
2023-05-13T04:41:23.268Z,3.00
2023-05-13T04:42:25.877Z,3.00
2023-05-13T04:43:28.422Z,3.33
2023-05-13T04:44:30.892Z,3.33
2023-05-13T04:45:33.673Z,2.33
2023-05-13T04:46:36.549Z,3.67
2023-05-13T04:47:39.445Z,3.33
2023-05-13T04:48:42.287Z,4.17
2023-05-13T04:49:45.688Z,3.57
2023-05-13T04:50:49.029Z,3.00
2023-05-13T04:51:52.373Z,3.57
2023-05-13T04:52:55.566Z,3.00
2023-05-13T04:53:58.399Z,3.33
2023-05-13T04:55:01.224Z,3.67
2023-05-13T04:56:04.201Z,3.00
2023-05-13T04:57:07.163Z,3.00
2023-05-13T04:58:10.036Z,3.00
2023-05-13T04:59:12.677Z,2.86
2023-05-13T05:00:15.240Z,3.00
2023-05-13T05:01:18.147Z,3.00
2023-05-13T05:02:21.119Z,3.00
2023-05-13T05:03:24.002Z,3.00
2023-05-13T05:04:26.835Z,3.33
2023-05-13T05:05:29.699Z,3.67
2023-05-13T05:06:32.544Z,3.00
2023-05-13T05:07:35.401Z,3.00
2023-05-13T05:08:38.326Z,3.00
2023-05-13T05:09:41.097Z,2.71
2023-05-13T05:10:43.986Z,3.00
2023-05-13T05:11:46.826Z,3.00
2023-05-13T05:12:49.674Z,3.00
2023-05-13T05:13:52.454Z,3.43
2023-05-13T05:14:55.185Z,3.67
2023-05-13T05:15:57.778Z,2.67
2023-05-13T05:17:00.372Z,3.67
2023-05-13T05:18:03.049Z,2.67
2023-05-13T05:19:05.684Z,3.33
2023-05-13T05:20:08.406Z,3.67
2023-05-13T05:21:10.980Z,3.33
2023-05-13T05:22:13.567Z,3.50
2023-05-13T05:23:16.145Z,4.00
2023-05-13T05:24:18.792Z,3.83
2023-05-13T05:25:21.349Z,3.00
2023-05-13T05:26:23.937Z,3.33
2023-05-13T05:27:26.485Z,3.67
2023-05-13T05:28:29.122Z,3.83
2023-05-13T05:29:31.703Z,4.00
2023-05-13T05:30:34.291Z,3.67
2023-05-13T05:31:36.947Z,3.83
2023-05-13T05:32:39.555Z,4.33
2023-05-13T05:33:42.124Z,5.00
2023-05-13T05:34:44.763Z,4.57
2023-05-13T05:35:47.338Z,4.00
2023-05-13T05:36:49.969Z,4.00
2023-05-13T05:37:52.518Z,4.67
2023-05-13T05:38:55.070Z,4.00
2023-05-13T05:39:57.821Z,4.00
2023-05-13T05:41:00.458Z,4.00
2023-05-13T05:42:02.981Z,3.83
2023-05-13T05:43:05.634Z,3.67
2023-05-13T05:44:08.283Z,4.14
2023-05-13T05:45:10.953Z,3.67
2023-05-13T05:46:13.605Z,4.33
2023-05-13T05:47:16.290Z,3.33
2023-05-13T05:48:19.086Z,4.17
2023-05-13T05:49:21.669Z,5.00
2023-05-13T05:50:24.320Z,5.33
2023-05-13T05:51:26.868Z,4.00
2023-05-13T05:52:29.510Z,3.67
2023-05-13T05:53:32.238Z,3.33
2023-05-13T05:54:34.801Z,4.00
2023-05-13T05:55:37.456Z,4.00
2023-05-13T05:56:40.065Z,4.00
2023-05-13T05:57:42.674Z,3.67
2023-05-13T05:58:45.258Z,3.67
2023-05-13T05:59:47.912Z,4.67
2023-05-13T06:00:50.575Z,3.67
2023-05-13T06:01:53.197Z,3.00
2023-05-13T06:02:55.915Z,4.00
2023-05-13T06:03:58.754Z,3.57
2023-05-13T06:05:01.413Z,3.33
2023-05-13T06:06:04.056Z,3.33
2023-05-13T06:07:06.764Z,3.00
2023-05-13T06:08:09.542Z,3.33
2023-05-13T06:09:12.121Z,3.17
2023-05-13T06:10:14.777Z,3.00
2023-05-13T06:11:17.359Z,3.00
2023-05-13T06:12:20.151Z,3.00
2023-05-13T06:13:22.700Z,3.00
2023-05-13T06:14:25.320Z,3.00
2023-05-13T06:15:27.891Z,3.00
2023-05-13T06:16:30.660Z,3.33
2023-05-13T06:17:33.319Z,3.57
2023-05-13T06:18:35.935Z,2.67
2023-05-13T06:19:38.543Z,2.67
2023-05-13T06:20:41.265Z,3.67
2023-05-13T06:21:43.872Z,3.00
2023-05-13T06:22:46.494Z,3.67
2023-05-13T06:23:49.184Z,3.83
2023-05-13T06:24:51.835Z,3.67
2023-05-13T06:25:54.417Z,3.67
2023-05-13T06:26:57.021Z,3.50
2023-05-13T06:28:01.524Z,3.33
2023-05-13T06:29:03.530Z,4.50
2023-05-13T06:30:06.111Z,4.33
2023-05-13T06:31:10.072Z,3.83
2023-05-13T06:32:12.952Z,4.00
2023-05-13T06:33:15.608Z,4.00
2023-05-13T06:34:18.861Z,3.67
2023-05-13T06:35:21.766Z,3.71
2023-05-13T06:36:24.598Z,4.33
2023-05-13T06:37:27.504Z,4.00
2023-05-13T06:38:30.101Z,4.00
2023-05-13T06:39:33.277Z,3.83
2023-05-13T06:40:36.152Z,3.29
2023-05-13T06:41:39.026Z,3.00
2023-05-13T06:42:46.944Z,3.00
2023-05-13T06:43:49.794Z,3.00
2023-05-13T06:44:52.627Z,3.33
2023-05-13T06:45:55.532Z,4.67
2023-05-13T06:46:58.530Z,4.14
2023-05-13T06:48:01.347Z,3.67
2023-05-13T06:49:04.151Z,4.57
2023-05-13T06:50:07.056Z,3.67
2023-05-13T06:51:09.937Z,4.00
2023-05-13T06:52:12.767Z,4.00
2023-05-13T06:53:15.452Z,4.00
2023-05-13T06:54:18.210Z,3.67
2023-05-13T06:55:21.168Z,3.67
2023-05-13T06:56:24.118Z,3.33
2023-05-13T06:57:38.828Z,3.00
2023-05-13T06:58:30.999Z,3.00
2023-05-13T06:59:33.891Z,3.17
2023-05-13T07:00:36.844Z,2.86
2023-05-13T07:01:39.867Z,4.33
2023-05-13T07:02:42.807Z,3.57
2023-05-13T07:03:45.648Z,3.43
2023-05-13T07:04:48.521Z,3.83
2023-05-13T07:05:51.066Z,4.00
2023-05-13T07:06:53.720Z,3.33
2023-05-13T07:07:56.333Z,2.67
2023-05-13T07:08:58.935Z,3.67
2023-05-13T07:10:01.603Z,3.33
2023-05-13T07:11:04.198Z,4.33
2023-05-13T07:12:06.809Z,4.00
2023-05-13T07:13:09.664Z,3.17
2023-05-13T07:14:12.546Z,4.00
2023-05-13T07:15:15.475Z,4.33
2023-05-13T07:16:18.349Z,5.43
2023-05-13T07:17:21.300Z,5.67
2023-05-13T07:18:24.566Z,4.57
2023-05-13T07:19:27.393Z,4.00
2023-05-13T07:20:30.235Z,4.67
2023-05-13T07:21:33.068Z,3.57
2023-05-13T07:22:35.936Z,3.00
2023-05-13T07:23:38.553Z,4.00
2023-05-13T07:24:41.569Z,3.67
2023-05-13T07:25:44.335Z,3.43
2023-05-13T07:26:47.315Z,4.00
2023-05-13T07:27:50.339Z,4.86
2023-05-13T07:28:53.258Z,3.67
2023-05-13T07:29:56.015Z,3.00
2023-05-13T07:30:58.949Z,3.00
2023-05-13T07:32:01.544Z,4.00
2023-05-13T07:33:04.379Z,4.33
2023-05-13T07:34:07.238Z,4.33
2023-05-13T07:35:10.055Z,3.33
2023-05-13T07:36:12.939Z,3.67
2023-05-13T07:37:15.727Z,3.50
2023-05-13T07:38:18.532Z,4.00
2023-05-13T07:39:21.488Z,4.00
2023-05-13T07:40:24.423Z,4.00
2023-05-13T07:41:27.380Z,3.57
2023-05-13T07:42:30.183Z,3.00
2023-05-13T07:43:33.042Z,4.00
2023-05-13T07:44:35.905Z,2.33
2023-05-13T07:45:38.755Z,3.33
2023-05-13T07:46:41.602Z,4.33
2023-05-13T07:47:44.781Z,3.67
2023-05-13T07:48:47.749Z,3.43
2023-05-13T07:49:50.378Z,4.33
2023-05-13T07:50:53.248Z,3.67
2023-05-13T07:51:55.843Z,3.43
2023-05-13T07:52:58.494Z,4.00
2023-05-13T07:54:01.166Z,4.00
2023-05-13T07:55:03.736Z,4.00
2023-05-13T07:56:06.312Z,4.00
2023-05-13T07:57:08.938Z,4.33
2023-05-13T07:58:11.503Z,5.33
2023-05-13T07:59:14.074Z,4.50
2023-05-13T08:00:16.655Z,5.00
2023-05-13T08:01:19.395Z,5.67
2023-05-13T08:02:22.143Z,5.67
2023-05-13T08:03:25.232Z,4.14
2023-05-13T08:04:28.116Z,5.00
2023-05-13T08:05:30.906Z,5.33
2023-05-13T08:06:33.721Z,6.00
2023-05-13T08:07:36.631Z,5.57
2023-05-13T08:08:39.402Z,4.50
2023-05-13T08:09:42.278Z,4.86
2023-05-13T08:10:45.101Z,5.00
2023-05-13T08:11:47.934Z,5.00
2023-05-13T08:12:50.829Z,4.67
2023-05-13T08:13:53.713Z,4.00
2023-05-13T08:14:56.550Z,4.00
2023-05-13T08:15:59.400Z,4.14
2023-05-13T08:17:02.242Z,3.67
2023-05-13T08:18:05.156Z,3.00
2023-05-13T08:19:08.127Z,3.33
2023-05-13T08:20:11.123Z,4.43
2023-05-13T08:21:13.911Z,5.50
2023-05-13T08:22:16.710Z,4.67
2023-05-13T08:23:19.495Z,4.00
2023-05-13T08:24:22.378Z,4.14
2023-05-13T08:25:25.228Z,4.50
2023-05-13T08:26:28.099Z,4.43
2023-05-13T08:27:30.628Z,5.33
2023-05-13T08:28:33.265Z,5.33
2023-05-13T08:29:35.835Z,4.00
2023-05-13T08:30:38.413Z,4.00
2023-05-13T08:31:41.077Z,4.33
2023-05-13T08:32:43.712Z,5.33
2023-05-13T08:33:46.356Z,5.17
2023-05-13T08:34:48.940Z,4.00
2023-05-13T08:35:51.501Z,4.17
2023-05-13T08:36:54.098Z,4.00
2023-05-13T08:37:56.693Z,4.00
2023-05-13T08:38:59.314Z,4.33
2023-05-13T08:40:01.980Z,4.57
2023-05-13T08:41:04.644Z,4.17
2023-05-13T08:42:07.208Z,4.00
2023-05-13T08:43:09.830Z,4.83
2023-05-13T08:44:12.417Z,5.67
2023-05-13T08:45:15.026Z,4.67
2023-05-13T08:46:17.648Z,4.67
2023-05-13T08:47:20.293Z,5.67
2023-05-13T08:48:22.893Z,5.00
2023-05-13T08:49:25.411Z,5.00
2023-05-13T08:50:31.068Z,5.33
2023-05-13T08:51:33.661Z,6.00
2023-05-13T08:52:36.266Z,5.00
2023-05-13T08:53:38.970Z,5.67
2023-05-13T08:54:41.633Z,5.67
2023-05-13T08:55:44.250Z,5.00
2023-05-13T08:56:46.891Z,5.00
2023-05-13T08:57:49.515Z,5.00
2023-05-13T08:58:52.177Z,5.00
2023-05-13T08:59:54.770Z,5.33
2023-05-13T09:00:57.406Z,5.67
2023-05-13T09:02:00.027Z,5.00
2023-05-13T09:03:02.725Z,4.67
2023-05-13T09:04:05.359Z,4.33
2023-05-13T09:05:09.095Z,5.00
2023-05-13T09:06:11.799Z,5.33
2023-05-13T09:07:14.438Z,5.67
2023-05-13T09:08:16.997Z,5.00
2023-05-13T09:09:19.629Z,4.67
2023-05-13T09:10:22.234Z,4.67
2023-05-13T09:11:24.813Z,5.33
2023-05-13T09:12:27.455Z,4.33
2023-05-13T09:13:30.006Z,5.33
2023-05-13T09:14:32.604Z,5.67
2023-05-13T09:15:35.217Z,5.33
2023-05-13T09:16:37.846Z,5.67
2023-05-13T09:17:40.603Z,5.33
2023-05-13T09:18:43.417Z,5.00
2023-05-13T09:19:46.269Z,5.33
2023-05-13T09:20:48.903Z,5.57
2023-05-13T09:21:51.570Z,5.00
2023-05-13T09:22:54.183Z,5.00
2023-05-13T09:23:56.806Z,5.33
2023-05-13T09:24:59.549Z,5.33
2023-05-13T09:26:02.120Z,6.00
2023-05-13T09:27:04.700Z,6.67
2023-05-13T09:28:07.339Z,8.67
2023-05-13T09:29:09.892Z,8.33
2023-05-13T09:30:12.540Z,5.00
2023-05-13T09:31:15.169Z,5.00
2023-05-13T09:32:17.810Z,4.67
2023-05-13T09:33:20.510Z,4.33
2023-05-13T09:34:23.091Z,6.33
2023-05-13T09:35:25.662Z,9.33
2023-05-13T09:36:28.204Z,11.50
2023-05-13T09:37:30.781Z,14.83
2023-05-13T09:38:33.361Z,10.50
2023-05-13T09:39:35.988Z,8.33
2023-05-13T09:40:38.591Z,7.67
2023-05-13T09:41:41.184Z,4.50
2023-05-13T09:42:43.981Z,4.67
2023-05-13T09:43:47.053Z,4.00
2023-05-13T09:44:49.921Z,2.57
2023-05-13T09:45:52.779Z,4.00
2023-05-13T09:46:55.566Z,4.00
2023-05-13T09:47:58.189Z,3.67
2023-05-13T09:49:00.943Z,3.00
2023-05-13T09:50:03.749Z,3.00
2023-05-13T09:51:06.613Z,3.67
2023-05-13T09:52:09.435Z,4.14
2023-05-13T09:53:12.351Z,4.00
2023-05-13T09:54:15.091Z,4.00
2023-05-13T09:55:17.739Z,3.00
2023-05-13T09:56:20.457Z,3.00
2023-05-13T09:57:23.310Z,3.57
2023-05-13T09:58:26.222Z,3.33
2023-05-13T09:59:29.001Z,3.71
2023-05-13T10:00:33.161Z,3.67
2023-05-13T10:01:35.919Z,3.00
2023-05-13T10:02:38.794Z,2.57
2023-05-13T10:03:41.421Z,2.00
2023-05-13T10:04:44.337Z,2.33
2023-05-13T10:05:47.204Z,2.83
2023-05-13T10:06:50.098Z,2.83
2023-05-13T10:07:53.111Z,3.00
2023-05-13T10:08:55.923Z,3.43
2023-05-13T10:09:58.748Z,4.00
2023-05-13T10:11:01.611Z,3.17
2023-05-13T10:12:04.502Z,3.17
2023-05-13T10:13:07.326Z,3.67
2023-05-13T10:14:10.163Z,3.00
2023-05-13T10:15:12.950Z,3.00
2023-05-13T10:16:15.584Z,3.00
2023-05-13T10:17:18.359Z,3.00
2023-05-13T10:18:21.031Z,3.33
2023-05-13T10:19:23.617Z,3.83
2023-05-13T10:20:26.320Z,3.33
2023-05-13T10:21:28.994Z,4.33
2023-05-13T10:22:31.597Z,4.00
2023-05-13T10:23:34.199Z,3.67
2023-05-13T10:24:38.557Z,3.50
2023-05-13T10:25:40.603Z,3.50
2023-05-13T10:26:43.138Z,3.67
2023-05-13T10:27:45.727Z,3.00
2023-05-13T10:28:48.575Z,3.33
2023-05-13T10:29:51.174Z,3.14
2023-05-13T10:30:54.278Z,2.50
2023-05-13T10:31:57.306Z,3.00
2023-05-13T10:33:00.272Z,3.67
2023-05-13T10:34:03.104Z,4.14
2023-05-13T10:35:05.951Z,2.67
2023-05-13T10:36:08.798Z,2.86
2023-05-13T10:37:11.586Z,4.00
2023-05-13T10:38:14.349Z,4.00
2023-05-13T10:39:17.188Z,3.67
2023-05-13T10:40:20.188Z,3.00
2023-05-13T10:41:23.144Z,3.00
2023-05-13T10:42:25.981Z,2.57
2023-05-13T10:43:28.970Z,2.83
2023-05-13T10:44:31.773Z,4.14
2023-05-13T10:45:34.609Z,3.67
2023-05-13T10:46:37.407Z,3.33
2023-05-13T10:47:40.014Z,4.00
2023-05-13T10:48:43.003Z,4.00
2023-05-13T10:49:46.016Z,4.33
2023-05-13T10:50:48.839Z,4.33
2023-05-13T10:51:51.444Z,3.00
2023-05-13T10:52:54.268Z,4.00
2023-05-13T10:53:57.126Z,5.33
2023-05-13T10:54:59.972Z,5.33
2023-05-13T10:56:02.533Z,6.00
2023-05-13T10:57:05.393Z,5.00
2023-05-13T10:58:08.279Z,3.43
2023-05-13T10:59:11.118Z,4.33
2023-05-13T11:00:13.933Z,5.00
2023-05-13T11:01:16.848Z,4.67
2023-05-13T11:02:19.910Z,3.57
2023-05-13T11:03:23.159Z,3.00
2023-05-13T11:04:26.109Z,2.67
2023-05-13T11:05:28.699Z,2.33
2023-05-13T11:06:31.550Z,2.67
2023-05-13T11:07:34.314Z,2.43
2023-05-13T11:08:37.246Z,3.00
2023-05-13T11:09:40.060Z,3.29
2023-05-13T11:10:42.959Z,3.67
2023-05-13T11:11:45.793Z,2.67
2023-05-13T11:12:48.366Z,2.00
2023-05-13T11:13:51.042Z,2.00
2023-05-13T11:14:53.624Z,2.00
2023-05-13T11:15:56.273Z,2.00
2023-05-13T11:16:58.924Z,2.00
2023-05-13T11:18:01.595Z,2.00
2023-05-13T11:19:04.225Z,2.00
2023-05-13T11:20:06.779Z,2.83
2023-05-13T11:22:25.648Z,3.00
2023-05-13T11:23:28.218Z,3.67
2023-05-13T11:24:30.880Z,5.67
2023-05-13T11:25:33.486Z,7.00
2023-05-13T11:26:36.083Z,8.33
2023-05-13T11:27:38.764Z,9.33
2023-05-13T11:28:41.501Z,9.86
2023-05-13T11:29:44.102Z,10.17
2023-05-13T11:30:46.685Z,9.67
2023-05-13T11:31:49.218Z,10.33
2023-05-13T11:32:52.062Z,11.67
2023-05-13T11:33:54.781Z,9.67
2023-05-13T11:34:57.358Z,9.67
2023-05-13T11:36:00.043Z,10.50
2023-05-13T11:37:02.632Z,12.00
2023-05-13T11:38:05.240Z,12.33
2023-05-13T11:39:07.779Z,12.50
2023-05-13T11:40:10.473Z,11.33
2023-05-13T11:41:13.079Z,12.67
2023-05-13T11:42:15.682Z,13.00
2023-05-13T11:43:18.312Z,14.00
2023-05-13T11:44:20.839Z,16.33
2023-05-13T11:45:23.613Z,18.67
2023-05-13T11:46:26.430Z,17.00
2023-05-13T11:47:30.418Z,15.67
2023-05-13T11:48:33.224Z,13.62
2023-05-13T11:49:36.077Z,13.71
2023-05-13T11:50:39.082Z,13.67
2023-05-13T11:51:42.091Z,13.86
2023-05-13T11:54:01.341Z,13.38
2023-05-13T11:55:05.073Z,14.00
2023-05-13T11:56:08.277Z,13.25
2023-05-13T11:57:10.994Z,13.33
2023-05-13T11:58:13.777Z,13.29
2023-05-13T11:59:16.620Z,12.67
2023-05-13T12:00:19.398Z,12.00
2023-05-13T12:01:22.326Z,12.33
2023-05-13T12:02:25.243Z,15.50
2023-05-13T12:03:28.216Z,17.00
2023-05-13T12:04:31.124Z,13.33
2023-05-13T12:05:33.951Z,14.00
2023-05-13T12:06:36.936Z,13.67
2023-05-13T12:07:39.823Z,13.43
2023-05-13T12:08:42.563Z,13.67
2023-05-13T12:09:45.415Z,13.00
2023-05-13T12:10:48.314Z,13.00
2023-05-13T12:11:51.227Z,15.43
2023-05-13T12:12:54.080Z,16.33
2023-05-13T12:13:56.982Z,14.67
2023-05-13T12:14:59.877Z,17.33
2023-05-13T12:16:02.553Z,14.67
2023-05-13T12:17:05.395Z,13.50
2023-05-13T12:18:08.076Z,13.86
2023-05-13T12:19:11.069Z,13.67
2023-05-13T12:20:14.049Z,14.29
2023-05-13T12:21:17.108Z,15.00
2023-05-13T12:22:20.038Z,14.17
2023-05-13T12:23:22.835Z,14.57
2023-05-13T12:24:25.624Z,14.00
2023-05-13T12:25:28.492Z,14.33
2023-05-13T12:26:31.308Z,14.57
2023-05-13T12:27:33.921Z,13.67
2023-05-13T12:28:36.531Z,14.00
2023-05-13T12:29:39.128Z,14.83
2023-05-13T12:30:41.747Z,14.67
2023-05-13T12:31:44.351Z,13.67
2023-05-13T12:32:47.442Z,15.33
2023-05-13T12:33:50.107Z,15.29
2023-05-13T12:34:52.724Z,15.00
2023-05-13T12:35:55.327Z,14.00
2023-05-13T12:36:57.861Z,14.33
2023-05-13T12:38:00.666Z,16.00
2023-05-13T12:39:03.469Z,16.00
2023-05-13T12:40:06.327Z,14.67
2023-05-13T12:41:09.505Z,13.86
2023-05-13T12:42:12.294Z,16.14
2023-05-13T12:43:15.096Z,18.14
2023-05-13T12:44:17.953Z,14.67
2023-05-13T12:45:20.983Z,14.33
2023-05-13T12:46:24.052Z,16.00
2023-05-13T12:47:26.933Z,16.00
2023-05-13T12:48:29.679Z,16.00
2023-05-13T12:49:32.474Z,15.14
2023-05-13T12:50:35.407Z,13.83
2023-05-13T12:51:38.249Z,15.14
2023-05-13T12:52:41.079Z,16.17
2023-05-13T12:53:43.947Z,14.67
2023-05-13T12:54:46.697Z,14.33
2023-05-13T12:55:49.527Z,14.67
2023-05-13T12:56:52.536Z,16.00
2023-05-13T12:57:55.379Z,15.00
2023-05-13T12:58:58.216Z,17.29
2023-05-13T13:00:01.128Z,17.67
2023-05-13T13:01:03.930Z,18.00
2023-05-13T13:02:19.180Z,16.67
2023-05-13T13:03:24.256Z,17.37
2023-05-13T13:04:25.602Z,18.29
2023-05-13T13:05:28.187Z,18.33
2023-05-13T13:06:30.795Z,16.50
2023-05-13T13:07:33.426Z,18.33
2023-05-13T13:08:35.995Z,18.67
2023-05-13T13:09:38.622Z,18.17
2023-05-13T13:10:41.165Z,19.00
2023-05-13T13:11:44.818Z,19.00
2023-05-13T13:12:47.676Z,19.00
2023-05-13T13:13:50.276Z,20.00
2023-05-13T13:14:53.469Z,21.83
2023-05-13T13:15:56.357Z,19.00
2023-05-13T13:17:04.291Z,20.43
2023-05-13T13:18:07.212Z,21.50
2023-05-13T13:19:10.069Z,23.14
2023-05-13T13:20:12.884Z,22.33
2023-05-13T13:21:15.742Z,21.29
2023-05-13T13:22:18.573Z,21.00
2023-05-13T13:23:21.446Z,22.67
2023-05-13T13:24:24.289Z,19.57
2023-05-13T13:25:27.129Z,19.17
2023-05-13T13:26:29.985Z,19.00
2023-05-13T13:27:32.771Z,19.86
2023-05-13T13:28:35.614Z,20.33
2023-05-13T13:29:38.391Z,20.43
2023-05-13T13:30:41.181Z,21.00
2023-05-13T13:31:43.985Z,20.71
2023-05-13T13:32:46.877Z,19.33
2023-05-13T13:33:49.692Z,22.00
2023-05-13T13:34:52.552Z,22.83
2023-05-13T13:35:55.155Z,21.29
2023-05-13T13:36:57.817Z,20.50
2023-05-13T13:38:00.418Z,20.83
2023-05-13T13:39:03.120Z,18.86
2023-05-13T13:40:05.733Z,20.83
2023-05-13T13:41:08.423Z,22.33
2023-05-13T13:42:10.959Z,21.33
2023-05-13T13:43:13.562Z,22.83
2023-05-13T13:44:16.077Z,20.83
2023-05-13T13:45:18.872Z,21.33
2023-05-13T13:46:21.847Z,22.50
2023-05-13T13:47:24.796Z,23.33
2023-05-13T13:48:27.639Z,21.67
2023-05-13T13:50:47.389Z,21.62
2023-05-13T13:51:49.752Z,21.00
2023-05-13T13:52:52.342Z,19.50
2023-05-13T13:53:54.927Z,21.33
2023-05-13T13:54:57.512Z,20.00
2023-05-13T13:56:00.113Z,21.33
2023-05-13T13:57:02.957Z,20.00
2023-05-13T13:58:05.805Z,20.50
2023-05-13T13:59:08.675Z,21.29
2023-05-13T14:00:11.578Z,23.00
2023-05-13T14:01:14.198Z,22.33
2023-05-13T14:02:17.191Z,22.00
2023-05-13T14:03:20.310Z,21.29
2023-05-13T14:04:23.517Z,20.86
2023-05-13T14:05:27.203Z,21.00
2023-05-13T14:06:30.008Z,20.00
2023-05-13T14:07:32.850Z,19.83
2023-05-13T14:08:35.627Z,21.33
2023-05-13T14:09:38.626Z,20.50
2023-05-13T14:10:41.470Z,20.14
2023-05-13T14:11:44.387Z,19.83
2023-05-13T14:12:47.231Z,20.83
2023-05-13T14:13:50.086Z,20.00
2023-05-13T14:14:52.911Z,19.67
2023-05-13T14:15:55.789Z,19.00
2023-05-13T14:16:58.630Z,19.00
2023-05-13T14:18:01.487Z,18.71
2023-05-13T14:19:04.441Z,18.67
2023-05-13T14:20:07.334Z,19.86
2023-05-13T14:21:09.912Z,19.83
2023-05-13T14:22:12.769Z,19.43
2023-05-13T14:23:15.632Z,18.67
2023-05-13T14:24:18.412Z,18.33
2023-05-13T14:25:21.209Z,20.00
2023-05-13T14:26:24.009Z,20.86